Time;durP1;ratioP1;P1;durP2;ratioP2;P2;SDS_P1;SDS_P2;PMS_P1;PMS_P2;Temp;Humidity;BMP_temperature;BMP_pressure;BME280_temperature;BME280_humidity;BME280_pressure;Samples;Min_cycle;Max_cycle;Signal;HPM_P1;HPM_P2
2022/12/15 00:40:46;;;;;;;;;85.00;59.00;;;;;-0.50;100.00;98599.34;6313715;20;3668984;-49
2022/12/15 00:43:15;;;;;;;;;89.00;64.00;;;;;-0.43;100.00;98594.72;6312383;20;3658693;-50
2022/12/15 00:48:33;;;;;;;;;91.33;66.67;;;;;-0.36;100.00;98592.75;6312684;20;3636736;-50
2022/12/15 00:51:02;;;;;;;;;87.67;62.00;;;;;-0.54;100.00;98595.09;6310996;20;3658694;-47
2022/12/15 01:21:37;;;;;;;;;83.33;63.00;;;;;-0.46;100.00;98592.19;6314154;20;3648364;-48
2022/12/15 01:24:07;;;;;;;;;82.33;61.67;;;;;-0.54;100.00;98586.31;6312569;20;3638880;-48
2022/12/15 01:26:37;;;;;;;;;63.67;44.00;;;;;-0.43;100.00;98586.81;6313124;20;3648195;-46
2022/12/15 01:29:07;;;;;;;;;79.33;59.00;;;;;-0.17;100.00;98582.38;6311287;20;3654441;-47
2022/12/15 01:31:36;;;;;;;;;78.00;60.33;;;;;-0.03;100.00;98564.28;6312982;20;2882674;-48
2022/12/15 01:34:06;;;;;;;;;81.33;57.33;;;;;-0.25;100.00;98558.94;6310354;20;3642979;-48
2022/12/15 01:36:35;;;;;;;;;87.00;64.00;;;;;-0.36;100.00;98569.84;6312067;20;3665966;-52
2022/12/15 01:39:05;;;;;;;;;84.00;63.00;;;;;-0.41;100.00;98569.16;6310019;20;3644044;-47
2022/12/15 01:41:35;;;;;;;;;79.33;61.00;;;;;-0.22;100.00;98570.22;6312829;20;2875474;-46
2022/12/15 01:44:23;;;;;;;;;85.67;65.33;;;;;-0.22;100.00;98580.75;6309900;20;3645144;-49
2022/12/15 01:46:55;;;;;;;;;78.00;62.00;;;;;-0.10;100.00;98584.75;6306803;20;2870133;-47
2022/12/15 01:49:28;;;;;;;;;84.67;61.00;;;;;-0.18;100.00;98586.81;6275701;20;3659623;-47
2022/12/15 01:52:01;;;;;;;;;84.67;58.33;;;;;-0.04;100.00;98579.25;6303732;20;3656657;-45
2022/12/15 01:54:53;;;;;;;;;79.33;60.33;;;;;-0.53;100.00;98588.88;6307660;20;3634737;-47
2022/12/15 01:57:28;;;;;;;;;67.67;53.67;;;;;-0.12;100.00;98596.28;6310709;20;3598236;-48
2022/12/15 02:00:04;;;;;;;;;82.67;63.33;;;;;-0.52;100.00;98601.16;6276443;20;3629573;-49
2022/12/15 02:02:37;;;;;;;;;83.67;63.00;;;;;-0.34;100.00;98607.59;6309710;20;2893090;-48
2022/12/15 02:05:10;;;;;;;;;80.67;61.00;;;;;-0.25;100.00;98607.25;6309511;20;2885828;-50
2022/12/15 02:07:41;;;;;;;;;84.67;61.33;;;;;-0.17;100.00;98595.56;6312070;20;3654598;-49
2022/12/15 02:10:11;;;;;;;;;84.00;61.33;;;;;-0.12;100.00;98610.31;6310318;20;3668203;-48
2022/12/15 02:13:25;;;;;;;;;75.00;61.00;;;;;-0.34;100.00;98609.34;6311257;20;2865924;-49
2022/12/15 02:16:42;;;;;;;;;93.00;65.00;;;;;-0.26;100.00;98600.28;6278432;20;2892079;-47
2022/12/15 02:20:12;;;;;;;;;92.33;65.00;;;;;-0.38;100.00;98605.97;6274380;20;3653409;-47
2022/12/15 02:23:57;;;;;;;;;76.67;58.00;;;;;-0.46;100.00;98602.72;6313773;20;3624282;-47
2022/12/15 02:27:41;;;;;;;;;89.33;65.00;;;;;-0.28;100.00;98588.91;6308874;20;3638809;-48
2022/12/15 02:30:43;;;;;;;;;89.67;65.00;;;;;-0.17;100.00;98591.16;6306449;20;3646129;-46
2022/12/15 02:33:28;;;;;;;;;85.00;62.00;;;;;-0.28;100.00;98602.09;6310877;20;3647261;-46
2022/12/15 02:36:32;;;;;;;;;80.33;63.67;;;;;-0.18;100.00;98599.16;6311633;20;3624209;-46
2022/12/15 02:39:03;;;;;;;;;80.67;59.33;;;;;0.08;100.00;98584.97;6307576;20;2896271;-48
2022/12/15 02:41:38;;;;;;;;;85.67;65.00;;;;;-0.08;100.00;98584.69;6311943;20;3629458;-47
2022/12/15 02:44:22;;;;;;;;;82.00;62.67;;;;;-0.15;100.00;98585.84;6310775;20;3632020;-48
2022/12/15 02:47:26;;;;;;;;;98.00;64.67;;;;;-0.16;100.00;98594.66;6318125;20;3654459;-46
2022/12/15 02:50:39;;;;;;;;;88.00;67.00;;;;;-0.33;100.00;98604.03;6310867;20;2891967;-49
2022/12/15 02:53:49;;;;;;;;;81.67;60.67;;;;;-0.30;100.00;98609.19;6315072;20;3642106;-47
2022/12/15 02:56:50;;;;;;;;;82.00;64.33;;;;;-0.02;100.00;98609.09;6313326;20;2876382;-48
2022/12/15 02:59:47;;;;;;;;;85.67;64.00;;;;;-0.31;100.00;98607.47;6312028;20;2892065;-47
2022/12/15 03:02:16;;;;;;;;;84.00;61.33;;;;;-0.03;100.00;98603.84;6313550;20;3658636;-50
2022/12/15 03:04:46;;;;;;;;;83.33;63.33;;;;;0.07;100.00;98602.59;6314628;20;3643075;-48
2022/12/15 03:07:16;;;;;;;;;85.00;59.67;;;;;-0.18;100.00;98605.28;6315203;20;3657563;-49
2022/12/15 03:09:45;;;;;;;;;86.33;63.00;;;;;-0.33;100.00;98604.03;6313655;20;3662814;-50
2022/12/15 03:12:15;;;;;;;;;86.67;62.33;;;;;-0.20;100.00;98609.75;6313358;20;3654421;-50
2022/12/15 03:14:44;;;;;;;;;82.33;62.67;;;;;0.08;100.00;98622.81;6308767;20;3639838;-47
2022/12/15 03:17:14;;;;;;;;;75.67;60.33;;;;;0.03;100.00;98622.13;6312844;20;3603818;-48
2022/12/15 03:19:44;;;;;;;;;84.33;63.00;;;;;0.20;100.00;98627.63;6310781;20;3648394;-51
2022/12/15 03:22:17;;;;;;;;;82.33;62.00;;;;;0.11;100.00;98629.75;6309214;20;3640873;-47
2022/12/15 03:24:47;;;;;;;;;84.00;66.00;;;;;0.00;100.00;98622.22;6310290;20;2880867;-47
2022/12/15 03:27:17;;;;;;;;;86.33;61.33;;;;;0.10;100.00;98623.59;6280209;20;3651323;-46
2022/12/15 03:29:47;;;;;;;;;95.33;69.33;;;;;0.16;100.00;98635.72;6313325;20;3648270;-46
2022/12/15 03:32:16;;;;;;;;;87.00;63.67;;;;;0.14;100.00;98641.06;6314574;20;3657672;-46
2022/12/15 03:34:46;;;;;;;;;80.33;62.00;;;;;0.21;100.00;98633.75;6312201;20;2885825;-48
2022/12/15 03:37:15;;;;;;;;;83.00;62.67;;;;;0.06;100.00;98637.84;6315473;20;2890929;-48
2022/12/15 03:39:45;;;;;;;;;98.00;74.00;;;;;-0.14;100.00;98635.03;6313636;20;3666926;-47
2022/12/15 03:42:46;;;;;;;;;86.33;62.67;;;;;-0.03;100.00;98639.03;6281961;20;2883712;-49
2022/12/15 03:45:04;;;;;;;;;86.67;63.67;;;;;-0.31;100.00;98651.47;6312621;20;3644530;-46
2022/12/15 03:47:34;;;;;;;;;103.67;76.00;;;;;0.02;100.00;98652.03;6315133;20;3685681;-46
2022/12/15 03:50:04;;;;;;;;;81.67;63.00;;;;;-0.03;100.00;98654.88;6279818;20;3633013;-47
2022/12/15 03:52:32;;;;;;;;;81.50;60.00;;;;;0.05;100.00;98654.56;6309716;20;2498202;-47
2022/12/15 03:55:04;;;;;;;;;85.67;60.67;;;;;-0.16;100.00;98650.91;6277101;20;3651369;-47
2022/12/15 03:57:33;;;;;;;;;72.00;52.50;;;;;0.05;100.00;98657.19;6311281;20;2871161;-46
2022/12/15 04:00:06;;;;;;;;;84.33;60.00;;;;;-0.48;100.00;98652.88;6277287;20;3648247;-48
2022/12/15 04:02:36;;;;;;;;;101.67;76.33;;;;;-0.47;100.00;98659.03;6316079;20;3665018;-47
2022/12/15 04:05:05;;;;;;;;;92.67;61.67;;;;;-0.24;100.00;98666.13;6281201;20;3662904;-48
2022/12/15 04:07:35;;;;;;;;;96.67;67.33;;;;;-0.18;100.00;98662.44;6315512;20;3657660;-48
2022/12/15 04:10:05;;;;;;;;;83.00;60.33;;;;;-0.08;100.00;98658.56;6314066;20;3659672;-47
2022/12/15 04:12:38;;;;;;;;;303.67;223.33;;;;;-0.04;100.00;98668.09;6314606;20;3754527;-50
2022/12/15 04:15:10;;;;;;;;;556.33;420.33;;;;;-0.23;100.00;98674.00;6280507;20;3736716;-50
2022/12/15 04:17:40;;;;;;;;;221.67;167.67;;;;;-0.10;100.00;98673.59;6278549;20;3702339;-48
2022/12/15 04:20:10;;;;;;;;;92.33;66.33;;;;;0.02;100.00;98681.06;6278505;20;3634710;-48
2022/12/15 04:22:45;;;;;;;;;103.00;72.00;;;;;-0.13;100.00;98681.59;6312660;20;3686777;-46
2022/12/15 05:33:10;;;;;;;;;92.33;67.33;;;;;0.06;100.00;98784.75;6313090;20;3643992;-46
2022/12/15 05:35:39;;;;;;;;;87.67;66.00;;;;;0.13;100.00;98787.13;6312126;20;3636097;-51
2022/12/15 05:38:09;;;;;;;;;90.00;70.00;;;;;0.07;100.00;98782.03;6312775;20;2877465;-46
2022/12/15 05:40:38;;;;;;;;;86.67;66.00;;;;;-0.02;100.00;98790.28;6312651;20;2879561;-46
2022/12/15 05:43:08;;;;;;;;;96.00;71.00;;;;;0.17;100.00;98778.19;6314427;20;3660739;-46
2022/12/15 05:45:37;;;;;;;;;88.33;65.67;;;;;0.16;100.00;98773.81;6313336;20;3648163;-49
2022/12/15 05:48:08;;;;;;;;;84.00;66.00;;;;;0.11;100.00;98786.31;6311689;20;2878432;-48
2022/12/15 05:50:37;;;;;;;;;95.67;71.00;;;;;0.24;100.00;98783.25;6310066;20;3657637;-47
2022/12/15 05:53:07;;;;;;;;;102.33;72.00;;;;;-0.10;100.00;98784.41;6311933;20;3687744;-48
2022/12/15 05:55:36;;;;;;;;;84.33;65.67;;;;;0.20;100.00;98777.22;6274426;20;2887996;-50
2022/12/15 05:58:06;;;;;;;;;89.00;65.00;;;;;-0.24;100.00;98777.81;6308915;20;3664960;-50
2022/12/15 06:00:36;;;;;;;;;96.67;69.67;;;;;0.10;100.00;98776.66;6278112;20;3654459;-50
2022/12/15 06:03:06;;;;;;;;;101.33;72.67;;;;;0.10;100.00;98776.66;6312121;20;3695136;-47
2022/12/15 06:05:35;;;;;;;;;105.00;84.00;;;;;0.10;100.00;98787.22;6282559;20;3688837;-47
2022/12/15 06:08:05;;;;;;;;;104.33;82.00;;;;;0.15;100.00;98798.47;6281023;20;3695161;-51
2022/12/15 06:10:35;;;;;;;;;92.33;69.33;;;;;0.09;100.00;98814.53;6278687;20;3646156;-48
2022/12/15 06:13:04;;;;;;;;;96.67;70.67;;;;;0.01;100.00;98824.47;6310285;20;3659656;-45
2022/12/15 06:15:34;;;;;;;;;92.67;69.00;;;;;-0.09;100.00;98836.25;6313505;20;3648642;-46
2022/12/15 06:18:04;;;;;;;;;100.33;74.33;;;;;0.04;100.00;98834.94;6313238;20;3670240;-48
2022/12/15 06:20:33;;;;;;;;;99.00;73.67;;;;;-0.03;100.00;98849.22;6283019;20;3672158;-47
2022/12/15 06:23:03;;;;;;;;;102.00;73.67;;;;;0.01;100.00;98856.13;6284183;20;3681550;-49
2022/12/15 06:25:32;;;;;;;;;102.33;78.00;;;;;0.12;100.00;98869.00;6283217;20;3687807;-47
2022/12/15 06:28:02;;;;;;;;;95.67;71.00;;;;;-0.02;100.00;98877.34;6283281;20;3657543;-49
2022/12/15 06:30:31;;;;;;;;;96.00;73.50;;;;;0.05;100.00;98867.44;6284485;20;3614147;-47
2022/12/15 06:33:01;;;;;;;;;99.67;72.67;;;;;0.07;100.00;98882.31;6318050;20;3676369;-47
2022/12/15 06:35:35;;;;;;;;;98.00;73.33;;;;;0.16;100.00;98887.31;6283985;20;3654412;-47
2022/12/15 06:38:04;;;;;;;;;93.33;68.67;;;;;0.19;100.00;98889.00;6316032;20;3655489;-48
2022/12/15 06:40:34;;;;;;;;;91.33;67.33;;;;;0.09;100.00;98895.47;6315488;20;3640316;-49
2022/12/15 06:43:08;;;;;;;;;92.00;68.00;;;;;0.03;100.00;98896.53;6319041;20;2788876;-53
2022/12/15 06:45:38;;;;;;;;;96.67;71.33;;;;;0.20;100.00;98899.50;6284799;20;3654556;-49
2022/12/15 06:48:07;;;;;;;;;99.50;73.00;;;;;0.20;100.00;98893.34;6282978;20;2859754;-47
2022/12/15 06:50:39;;;;;;;;;121.67;97.67;;;;;0.38;100.00;98897.19;6312846;20;3687865;-48
2022/12/15 06:53:09;;;;;;;;;107.33;94.00;;;;;0.21;100.00;98901.25;6284902;20;3691004;-46
2022/12/15 06:55:39;;;;;;;;;105.00;82.67;;;;;0.42;100.00;98914.63;6284037;20;3679440;-46
2022/12/15 06:58:12;;;;;;;;;123.00;92.67;;;;;0.28;100.00;98917.72;6281995;20;4350376;-47
2022/12/15 07:00:44;;;;;;;;;154.75;116.00;;;;;0.57;100.00;98923.84;6317564;20;3710668;-46
2022/12/15 07:03:18;;;;;;;;;124.33;90.67;;;;;0.70;100.00;98934.84;6315269;20;3680618;-46
2022/12/15 07:06:10;;;;;;;;;130.00;98.50;;;;;0.50;100.00;98923.19;6282017;20;3697195;-48
2022/12/15 07:08:41;;;;;;;;;131.50;105.25;;;;;0.10;100.00;98913.88;6280560;20;3717963;-48
2022/12/15 07:11:12;;;;;;;;;124.33;100.67;;;;;0.42;100.00;98917.28;6279258;20;3709644;-47
2022/12/15 07:13:42;;;;;;;;;118.67;92.33;;;;;0.53;100.00;98938.06;6284849;20;3702319;-50
2022/12/15 07:16:12;;;;;;;;;124.50;102.25;;;;;0.40;100.00;98924.41;6286996;20;3729431;-46
2022/12/15 07:18:43;;;;;;;;;142.75;106.75;;;;;0.65;100.00;98927.94;6318145;20;4485775;-45
2022/12/15 07:21:13;;;;;;;;;108.00;91.33;;;;;0.73;100.00;98929.47;6313948;20;3687824;-46
2022/12/15 07:23:43;;;;;;;;;103.67;84.33;;;;;0.63;100.00;98935.06;6282140;20;3692291;-47
2022/12/15 07:26:29;;;;;;;;;96.67;72.67;;;;;0.55;100.00;98929.16;6284941;20;3662748;-48
2022/12/15 07:28:58;;;;;;;;;97.00;72.00;;;;;0.55;100.00;98926.50;6281248;20;3649213;-45
2022/12/15 07:31:30;;;;;;;;;101.67;76.33;;;;;0.67;100.00;98940.25;6314216;20;3685694;-47
2022/12/15 07:34:00;;;;;;;;;97.33;76.67;;;;;0.72;100.00;98939.16;6280838;20;3653367;-47
2022/12/15 07:36:30;;;;;;;;;95.00;72.33;;;;;0.68;100.00;98974.50;6277662;20;3652331;-45
2022/12/15 07:39:01;;;;;;;;;99.67;72.67;;;;;0.71;100.00;98973.56;6315093;20;3679428;-49
2022/12/15 07:41:31;;;;;;;;;89.33;69.33;;;;;1.08;100.00;98966.13;6282432;20;3641962;-46
2022/12/15 07:44:01;;;;;;;;;96.00;69.67;;;;;1.02;100.00;98987.47;6316178;20;3660639;-49
2022/12/15 07:46:30;;;;;;;;;97.33;69.67;;;;;0.90;100.00;98989.69;6277580;20;3663803;-46
2022/12/15 07:49:00;;;;;;;;;97.00;75.67;;;;;1.34;100.00;98992.56;6312119;20;3661723;-48
2022/12/15 07:51:30;;;;;;;;;87.00;66.33;;;;;1.10;100.00;98985.41;6280921;20;3648186;-49
2022/12/15 07:53:58;;;;;;;;;84.50;67.00;;;;;1.06;100.00;98989.09;6313865;20;2879447;-47
2022/12/15 07:56:28;;;;;;;;;93.00;67.67;;;;;1.21;100.00;98986.81;6280335;20;3660675;-50
2022/12/15 07:59:05;;;;;;;;;95.00;67.67;;;;;1.28;100.00;98986.56;6284465;20;3646141;-47
2022/12/15 08:01:35;;;;;;;;;95.00;67.00;;;;;1.08;100.00;98994.34;6318439;20;3671221;-49
2022/12/15 08:04:05;;;;;;;;;89.67;67.00;;;;;0.88;100.00;98987.06;6315558;20;3640927;-46
2022/12/15 08:06:35;;;;;;;;;95.33;68.00;;;;;1.10;100.00;98992.50;6314006;20;3655583;-49
2022/12/15 08:09:04;;;;;;;;;82.00;61.00;;;;;1.01;100.00;98998.09;6315914;20;3654455;-46
2022/12/15 08:11:34;;;;;;;;;90.67;65.67;;;;;0.76;100.00;98998.91;6313253;20;3647215;-49
2022/12/15 08:14:04;;;;;;;;;95.00;69.00;;;;;0.96;100.00;99006.19;6315136;20;3661749;-47
2022/12/15 08:16:41;;;;;;;;;99.67;74.00;;;;;0.78;100.00;99004.16;6280059;20;3675220;-47
2022/12/15 08:19:14;;;;;;;;;100.00;75.67;;;;;1.08;100.00;99004.91;6276952;20;3681934;-47
2022/12/15 08:21:45;;;;;;;;;95.67;72.67;;;;;1.14;100.00;99014.41;6284567;20;3665963;-49
2022/12/15 08:24:16;;;;;;;;;98.00;75.33;;;;;1.00;100.00;99007.81;6284341;20;3650402;-48
2022/12/15 08:26:46;;;;;;;;;99.33;77.67;;;;;1.13;100.00;99017.97;6316031;20;3683614;-51
2022/12/15 08:29:19;;;;;;;;;103.00;84.00;;;;;1.21;100.00;99013.28;6282814;20;3694010;-51
2022/12/15 08:32:08;;;;;;;;;100.00;71.00;;;;;1.16;100.00;99018.75;6282410;20;3684607;-50
2022/12/15 08:34:38;;;;;;;;;97.67;70.67;;;;;1.29;100.00;99008.56;6284197;20;3675292;-51
2022/12/15 08:37:08;;;;;;;;;98.00;69.00;;;;;1.23;100.00;99022.88;6280719;20;3672123;-49
2022/12/15 08:39:37;;;;;;;;;92.00;71.00;;;;;1.43;100.00;99016.91;6281432;20;3664824;-47
2022/12/15 08:42:07;;;;;;;;;97.33;72.00;;;;;1.48;100.00;99025.53;6312954;20;3668065;-49
2022/12/15 08:44:37;;;;;;;;;95.33;68.00;;;;;1.48;100.00;99033.47;6283687;20;3651362;-46
2022/12/15 08:47:07;;;;;;;;;98.67;72.00;;;;;1.48;100.00;99040.56;6311934;20;3685710;-47
2022/12/15 08:49:36;;;;;;;;;88.67;67.00;;;;;1.47;100.00;99050.25;6280632;20;3649651;-46
2022/12/15 08:52:06;;;;;;;;;90.67;67.00;;;;;1.69;100.00;99039.78;6309724;20;3647153;-47
2022/12/15 08:54:35;;;;;;;;;88.67;65.00;;;;;1.85;100.00;99034.81;6311514;20;3644038;-46
2022/12/15 08:57:05;;;;;;;;;83.33;61.33;;;;;1.69;100.00;99033.63;6315424;20;3655676;-49
2022/12/15 08:59:35;;;;;;;;;78.00;62.00;;;;;1.69;100.00;99028.34;6312049;20;2858665;-46
2022/12/15 09:02:04;;;;;;;;;89.00;67.33;;;;;1.70;100.00;99030.91;6313146;20;3655612;-48
2022/12/15 09:04:34;;;;;;;;;95.67;74.67;;;;;1.74;100.00;99039.63;6312945;20;3675345;-46
2022/12/15 09:07:04;;;;;;;;;88.67;65.00;;;;;1.94;100.00;99045.03;6279558;20;3655601;-50
2022/12/15 09:09:34;;;;;;;;;89.67;65.67;;;;;2.03;100.00;99056.22;6313520;20;3637744;-50
2022/12/15 09:12:03;;;;;;;;;74.50;57.00;;;;;1.94;100.00;99060.91;6311821;20;2891022;-45
2022/12/15 09:14:32;;;;;;;;;100.00;75.67;;;;;1.89;100.00;99062.00;6280436;20;3675240;-48
2022/12/15 09:17:02;;;;;;;;;99.67;82.67;;;;;1.85;100.00;99066.56;6280324;20;3689829;-47
2022/12/15 09:19:33;;;;;;;;;108.33;85.33;;;;;2.08;100.00;99059.53;6279308;20;3693216;-47
2022/12/15 09:22:04;;;;;;;;;134.00;112.00;;;;;2.14;100.00;99046.09;6279282;20;3719169;-47
2022/12/15 09:24:33;;;;;;;;;109.00;91.00;;;;;1.87;100.00;99048.84;6280679;20;3694032;-46
2022/12/15 09:27:04;;;;;;;;;198.50;157.00;;;;;2.07;100.00;99052.53;6276292;20;1953452;-50
2022/12/15 09:29:35;;;;;;;;;122.50;108.00;;;;;2.18;100.00;99060.94;6278221;20;4476386;-47
2022/12/15 09:32:05;;;;;;;;;111.33;93.33;;;;;2.25;100.00;99051.84;6279025;20;3689875;-49
2022/12/15 09:34:42;;;;;;;;;101.00;85.00;;;;;2.22;100.00;99048.47;6280788;20;3688801;-46
2022/12/15 09:37:12;;;;;;;;;94.00;69.67;;;;;2.28;100.00;99054.38;6279844;20;3674342;-46
2022/12/15 09:39:41;;;;;;;;;95.67;71.67;;;;;1.90;100.00;99064.63;6278142;20;3668371;-48
2022/12/15 09:42:27;;;;;;;;;93.67;74.00;;;;;2.05;100.00;99060.53;6280003;20;3651425;-47
2022/12/15 09:45:19;;;;;;;;;86.67;65.67;;;;;2.03;100.00;99056.22;6312544;20;3636828;-46
2022/12/15 09:48:05;;;;;;;;;98.33;77.33;;;;;2.20;100.00;99057.31;6310170;20;3662759;-46
2022/12/15 09:50:38;;;;;;;;;88.33;63.33;;;;;2.14;100.00;99062.84;6275060;20;3642046;-50
2022/12/15 09:53:16;;;;;;;;;97.00;69.00;;;;;2.34;100.00;99059.47;6307811;20;3672267;-49
2022/12/15 09:56:48;;;;;;;;;116.33;94.67;;;;;2.41;100.00;99063.56;6273705;20;3703415;-49
2022/12/15 09:59:36;;;;;;;;;99.33;82.33;;;;;2.42;100.00;99052.06;6277449;20;3684629;-46
2022/12/15 10:02:39;;;;;;;;;100.33;82.00;;;;;2.30;100.00;99049.88;6279898;20;3692036;-50
2022/12/15 10:06:06;;;;;;;;;201.00;169.75;;;;;2.62;100.00;99050.41;6279599;20;3711764;-46
2022/12/15 10:09:13;;;;;;;;;96.00;79.67;;;;;2.31;100.00;99046.31;6279046;20;3669041;-47
2022/12/15 10:12:06;;;;;;;;;163.00;135.00;;;;;2.42;100.00;99041.47;6273646;20;1958631;-47
2022/12/15 10:14:49;;;;;;;;;102.67;73.33;;;;;2.62;100.00;99037.16;6309364;20;3698287;-48
2022/12/15 10:17:38;;;;;;;;;97.00;76.00;;;;;2.64;100.00;99037.97;6276185;20;3674253;-45
2022/12/15 10:20:28;;;;;;;;;98.33;72.00;;;;;2.85;100.00;99033.59;6272836;20;3676296;-48
2022/12/15 10:23:12;;;;;;;;;94.33;76.00;;;;;2.70;100.00;99035.06;6279042;20;3673202;-47
2022/12/15 10:26:18;;;;;;;;;100.33;76.67;;;;;2.72;100.00;99029.72;6277711;20;3687866;-48
2022/12/15 10:29:24;;;;;;;;;97.33;78.67;;;;;2.93;100.00;99038.59;6276929;20;3684653;-49
2022/12/15 10:32:06;;;;;;;;;104.00;86.67;;;;;2.67;100.00;99024.59;6275112;20;3685686;-46
2022/12/15 10:34:37;;;;;;;;;98.33;73.33;;;;;2.44;100.00;99032.59;6278047;20;3675284;-45
2022/12/15 10:37:18;;;;;;;;;86.00;64.33;;;;;2.57;100.00;99028.53;6278537;20;3655944;-47
2022/12/15 10:39:50;;;;;;;;;92.33;66.33;;;;;2.60;100.00;99036.38;6309849;20;3659749;-48
2022/12/15 10:42:25;;;;;;;;;167.25;137.25;;;;;2.88;100.00;99024.66;6311955;20;4482526;-51
2022/12/15 10:44:58;;;;;;;;;127.75;102.75;;;;;3.16;100.00;99025.25;6307126;20;4496168;-50
2022/12/15 10:47:31;;;;;;;;;92.67;70.00;;;;;3.04;100.00;99025.75;6280214;20;3658717;-47
2022/12/15 10:50:24;;;;;;;;;111.00;91.67;;;;;2.93;100.00;99020.03;6307777;20;3683570;-48
2022/12/15 10:52:54;;;;;;;;;125.50;97.00;;;;;3.10;100.00;99027.28;6279053;20;3636698;-47
2022/12/15 10:55:36;;;;;;;;;79.00;44.00;;;;;3.09;100.00;99026.44;6275472;20;3604411;-49
2022/12/15 10:58:22;;;;;;;;;113.33;91.33;;;;;2.95;100.00;99028.75;6277814;20;3674244;-48
2022/12/15 11:01:24;;;;;;;;;119.75;100.25;;;;;3.13;100.00;99029.78;6278750;20;4473146;-49
2022/12/15 11:03:56;;;;;;;;;108.00;86.00;;;;;3.40;100.00;99025.13;6308883;20;3689825;-47
2022/12/15 11:06:32;;;;;;;;;103.33;78.67;;;;;3.22;100.00;99026.78;6280907;20;3707576;-49
2022/12/15 11:09:37;;;;;;;;;100.33;82.67;;;;;3.15;100.00;99031.47;6283572;20;3693990;-46
2022/12/15 11:15:23;;;;;;;;;77.00;57.00;;;;;3.03;100.00;99043.47;6312893;20;3632545;-46
2022/12/15 11:18:20;;;;;;;;;71.33;57.33;;;;;3.15;100.00;99042.06;6315013;20;3610663;-47
2022/12/15 11:21:06;;;;;;;;;74.67;56.33;;;;;3.41;100.00;99037.47;6314690;20;3629497;-49
2022/12/15 11:24:20;;;;;;;;;211.50;169.25;;;;;3.55;100.00;99040.38;6315650;20;4474239;-47
2022/12/15 11:27:24;;;;;;;;;119.50;104.00;;;;;3.41;100.00;99034.81;6278627;20;4485634;-49
2022/12/15 11:30:19;;;;;;;;;86.00;64.00;;;;;3.18;100.00;99031.31;6311881;20;3634662;-50
2022/12/15 11:32:58;;;;;;;;;83.00;63.00;;;;;3.28;100.00;99037.97;6311903;20;3648231;-50
2022/12/15 11:36:08;;;;;;;;;86.67;61.33;;;;;3.50;100.00;99050.31;6313950;20;3638833;-51
2022/12/15 11:38:55;;;;;;;;;89.33;68.33;;;;;3.73;100.00;99039.56;6317201;20;3661151;-47
2022/12/15 11:41:58;;;;;;;;;86.67;65.00;;;;;3.92;100.00;99044.94;6313777;20;3646124;-46
2022/12/15 11:44:59;;;;;;;;;87.67;65.33;;;;;3.38;100.00;99051.72;6316861;20;3654538;-48
2022/12/15 11:47:54;;;;;;;;;87.33;68.00;;;;;3.46;100.00;99048.75;6316910;20;3636711;-49
2022/12/15 11:50:53;;;;;;;;;83.33;62.67;;;;;3.40;100.00;99046.38;6311323;20;3639168;-49
2022/12/15 11:53:53;;;;;;;;;86.33;65.00;;;;;3.28;100.00;99048.59;6311030;20;3644023;-47
2022/12/15 11:56:44;;;;;;;;;84.00;66.33;;;;;3.81;100.00;99046.34;6313318;20;3629515;-47
2022/12/15 11:59:57;;;;;;;;;85.33;63.33;;;;;3.87;100.00;99046.94;6279902;20;3641950;-49
2022/12/15 12:02:49;;;;;;;;;91.00;73.33;;;;;3.26;100.00;99045.13;6310677;20;3684660;-50
2022/12/15 12:05:56;;;;;;;;;111.50;94.50;;;;;3.99;100.00;99044.66;6278660;20;3696302;-49
2022/12/15 12:09:02;;;;;;;;;93.00;75.00;;;;;3.84;100.00;99047.06;6310320;20;3664982;-47
2022/12/15 12:12:01;;;;;;;;;92.67;78.67;;;;;4.05;100.00;99050.53;6281885;20;3671076;-47
2022/12/15 12:14:49;;;;;;;;;87.67;68.33;;;;;3.83;100.00;99049.78;6273288;20;3660693;-46
2022/12/15 12:17:51;;;;;;;;;151.50;122.25;;;;;3.72;100.00;99053.78;6278824;20;4491954;-47
2022/12/15 12:21:23;;;;;;;;;130.25;105.25;;;;;3.53;100.00;99066.13;6279915;20;4488833;-46
2022/12/15 12:24:09;;;;;;;;;97.33;83.33;;;;;3.56;100.00;99058.03;6279358;20;3678384;-47
2022/12/15 12:27:25;;;;;;;;;104.33;90.00;;;;;3.48;100.00;99054.84;6279096;20;3689918;-51
2022/12/15 12:30:11;;;;;;;;;163.67;141.00;;;;;3.62;100.00;99063.06;6277380;20;3736688;-48
2022/12/15 12:33:03;;;;;;;;;141.00;116.50;;;;;3.30;100.00;99054.69;6272440;20;1951439;-47
2022/12/15 12:35:46;;;;;;;;;96.33;80.33;;;;;3.29;100.00;99052.97;6278517;20;3666907;-45
2022/12/15 12:38:28;;;;;;;;;97.00;88.67;;;;;3.47;100.00;99058.41;6275558;20;3636739;-48
2022/12/15 12:41:25;;;;;;;;;92.33;71.00;;;;;3.12;100.00;99042.19;6309820;20;3669128;-47
2022/12/15 12:44:00;;;;;;;;;116.67;95.67;;;;;3.29;100.00;99047.69;6275584;20;3692975;-51
2022/12/15 12:46:40;;;;;;;;;104.25;76.75;;;;;3.15;100.00;99041.22;6278189;20;3701914;-48
2022/12/15 12:49:30;;;;;;;;;100.33;75.00;;;;;3.17;100.00;99039.38;6273825;20;3688846;-46
2022/12/15 12:52:03;;;;;;;;;86.67;68.33;;;;;3.18;100.00;99030.47;6277852;20;3663807;-48
2022/12/15 12:54:35;;;;;;;;;97.67;72.67;;;;;3.23;100.00;99032.00;6273681;20;3669021;-47
2022/12/15 12:57:11;;;;;;;;;85.67;64.67;;;;;3.00;100.00;99026.78;6274891;20;3645156;-47
2022/12/15 13:00:40;;;;;;;;;86.67;66.00;;;;;3.08;100.00;99035.28;6304615;20;3646078;-48
2022/12/15 13:03:20;;;;;;;;;103.00;84.00;;;;;3.28;100.00;99040.63;6304495;20;3678397;-50
2022/12/15 13:05:51;;;;;;;;;90.00;67.00;;;;;2.96;100.00;99047.28;6272121;20;3647502;-48
2022/12/15 13:08:54;;;;;;;;;94.00;69.67;;;;;2.65;100.00;99052.94;6305481;20;3662849;-49
2022/12/15 13:11:51;;;;;;;;;90.33;67.33;;;;;2.81;100.00;99059.34;6278349;20;3659821;-49
2022/12/15 13:14:45;;;;;;;;;91.50;69.50;;;;;2.77;100.00;99056.91;6303367;20;3536698;-50
2022/12/15 13:17:43;;;;;;;;;93.00;72.00;;;;;2.73;100.00;99052.66;6307687;20;3673170;-50
2022/12/15 13:20:30;;;;;;;;;97.33;76.33;;;;;2.69;100.00;99048.41;6273911;20;3680476;-49
2022/12/15 13:23:21;;;;;;;;;91.00;68.33;;;;;2.92;100.00;99052.75;6275489;20;3654467;-47
2022/12/15 13:25:57;;;;;;;;;87.67;68.33;;;;;3.15;100.00;99063.28;6308512;20;3654406;-48
2022/12/15 13:28:38;;;;;;;;;100.33;85.33;;;;;3.05;100.00;99078.75;6306750;20;3678499;-46
2022/12/15 13:31:19;;;;;;;;;97.25;81.25;;;;;2.85;100.00;99084.84;6277993;20;4435760;-47
2022/12/15 13:33:58;;;;;;;;;101.33;87.00;;;;;2.56;100.00;99101.03;6303863;20;3677375;-48
2022/12/15 13:36:40;;;;;;;;;111.00;93.67;;;;;2.89;100.00;99097.97;6271012;20;3686723;-50
2022/12/15 13:39:16;;;;;;;;;111.33;88.00;;;;;2.92;100.00;99101.34;6273520;20;3682664;-48
2022/12/15 13:41:50;;;;;;;;;95.67;80.67;;;;;2.81;100.00;99092.97;6277036;20;3658543;-48
2022/12/15 13:44:56;;;;;;;;;102.67;81.67;;;;;2.52;100.00;99096.75;6274255;20;3683388;-48
2022/12/15 13:47:28;;;;;;;;;107.67;83.33;;;;;2.80;100.00;99105.34;6272335;20;3699221;-51
2022/12/15 13:50:58;;;;;;;;;97.33;83.00;;;;;2.78;100.00;99107.19;6274787;20;3676412;-47
2022/12/15 13:53:40;;;;;;;;;108.00;89.67;;;;;2.74;100.00;99116.22;6181682;20;8080243;-49
2022/12/15 13:56:11;;;;;;;;;135.50;107.75;;;;;2.68;100.00;99100.53;6304872;20;4512842;-50
2022/12/15 13:58:49;;;;;;;;;96.00;76.33;;;;;2.71;100.00;99095.09;6308538;20;3677478;-49
2022/12/15 14:01:30;;;;;;;;;108.33;87.00;;;;;2.89;100.00;99087.34;6270144;20;3696125;-47
2022/12/15 14:04:15;;;;;;;;;139.25;112.50;;;;;2.92;100.00;99098.69;6276864;20;3714910;-49
2022/12/15 14:07:00;;;;;;;;;121.00;96.33;;;;;2.76;100.00;99102.88;6307390;20;3691293;-48
2022/12/15 14:09:40;;;;;;;;;136.25;110.00;;;;;2.79;100.00;99103.66;6277530;20;3704503;-50
2022/12/15 14:12:13;;;;;;;;;105.00;85.67;;;;;2.72;100.00;99101.28;6272026;20;3688816;-47
2022/12/15 14:14:47;;;;;;;;;99.67;81.00;;;;;2.58;100.00;99099.16;6273593;20;3678375;-50